Time;durP1;ratioP1;P1;durP2;ratioP2;P2;SDS_P1;SDS_P2;PMS_P1;PMS_P2;Temp;Humidity;BMP_temperature;BMP_pressure;BME280_temperature;BME280_humidity;BME280_pressure;Samples;Min_cycle;Max_cycle;Signal;HPM_P1;HPM_P2
2022/05/15 00:00:41;;;;;;;0.00;0.00;;;19.90;72.60;;;;;;4163596;28;20133;-67
2022/05/15 00:03:14;;;;;;;0.00;0.00;;;19.90;72.40;;;;;;4150096;28;20045;-68
2022/05/15 00:05:36;;;;;;;0.00;0.00;;;20.00;72.40;;;;;;4149835;28;20050;-68
2022/05/15 00:08:02;;;;;;;0.00;0.00;;;19.90;73.00;;;;;;4163506;28;20057;-68
2022/05/15 00:10:24;;;;;;;0.00;0.00;;;19.90;72.80;;;;;;4136072;28;20136;-66
2022/05/15 00:12:51;;;;;;;0.00;0.00;;;19.90;72.90;;;;;;4135910;28;20063;-68
2022/05/15 00:15:18;;;;;;;0.00;0.00;;;19.90;73.10;;;;;;4149484;28;20068;-69
2022/05/15 00:17:41;;;;;;;0.00;0.00;;;19.90;73.10;;;;;;4135870;28;20081;-66
2022/05/15 00:20:06;;;;;;;0.00;0.00;;;19.80;73.20;;;;;;4149514;28;20045;-65
2022/05/15 00:22:34;;;;;;;0.00;0.00;;;19.80;73.30;;;;;;4135795;28;20054;-67
2022/05/15 00:24:56;;;;;;;0.00;0.00;;;19.80;73.80;;;;;;4149459;28;20050;-67
2022/05/15 00:27:18;;;;;;;0.00;0.00;;;19.70;73.90;;;;;;4160658;28;20069;-67
2022/05/15 00:29:40;;;;;;;0.00;0.00;;;19.70;74.20;;;;;;4165843;28;20745;-68
2022/05/15 00:32:02;;;;;;;0.00;0.00;;;19.70;74.40;;;;;;4152105;28;20064;-67
2022/05/15 00:34:27;;;;;;;0.00;0.00;;;19.60;74.40;;;;;;4141853;28;20137;-68
2022/05/15 00:36:52;;;;;;;0.00;0.00;;;19.60;74.50;;;;;;4135593;28;20042;-68
2022/05/15 00:39:17;;;;;;;0.00;0.00;;;19.70;74.50;;;;;;4149337;28;20045;-67
2022/05/15 00:41:45;;;;;;;0.00;0.00;;;19.60;74.60;;;;;;4150555;28;20057;-67
2022/05/15 00:44:12;;;;;;;0.00;0.00;;;19.60;74.80;;;;;;4152765;28;20472;-69
2022/05/15 00:46:40;;;;;;;0.00;0.00;;;19.50;75.20;;;;;;4139580;28;20058;-67
2022/05/15 00:49:09;;;;;;;0.00;0.00;;;19.40;75.20;;;;;;4163505;28;20084;-69
2022/05/15 00:51:50;;;;;;;0.00;0.00;;;19.50;75.30;;;;;;4136199;28;20074;-68
2022/05/15 00:54:57;;;;;;;0.00;0.00;;;19.50;75.10;;;;;;4149728;28;20137;-67
2022/05/15 00:57:37;;;;;;;0.00;0.00;;;19.40;75.30;;;;;;4149678;28;20046;-67
2022/05/15 01:00:04;;;;;;;0.00;0.00;;;19.30;75.50;;;;;;4163691;28;20107;-68
2022/05/15 01:02:33;;;;;;;0.00;0.00;;;19.30;75.50;;;;;;4136111;28;20045;-69
2022/05/15 01:04:55;;;;;;;0.00;0.00;;;19.30;75.70;;;;;;4149638;28;20636;-66
2022/05/15 01:07:19;;;;;;;0.00;0.00;;;19.20;75.80;;;;;;4135932;28;20046;-67
2022/05/15 01:09:42;;;;;;;0.00;0.00;;;19.10;76.20;;;;;;4149876;28;20104;-66
2022/05/15 01:12:11;;;;;;;0.00;0.00;;;19.00;76.50;;;;;;4149738;28;20463;-66
2022/05/15 01:14:38;;;;;;;0.00;0.00;;;19.00;76.50;;;;;;4149461;28;20049;-67
2022/05/15 01:17:05;;;;;;;0.00;0.00;;;19.10;77.20;;;;;;4149672;28;20116;-66
2022/05/15 01:19:30;;;;;;;0.00;0.00;;;19.10;76.70;;;;;;4149402;28;20060;-66
2022/05/15 01:21:55;;;;;;;0.00;0.00;;;19.00;77.00;;;;;;4163008;28;20049;-68
2022/05/15 01:24:21;;;;;;;0.00;0.00;;;18.90;77.40;;;;;;4149613;28;20112;-68
2022/05/15 01:26:45;;;;;;;0.00;0.00;;;18.90;77.40;;;;;;4155515;28;20053;-65
2022/05/15 01:29:13;;;;;;;0.00;0.00;;;18.90;77.40;;;;;;4152887;28;20050;-66
2022/05/15 01:31:37;;;;;;;0.00;0.00;;;19.00;77.30;;;;;;4152232;28;20076;-65
2022/05/15 01:34:04;;;;;;;0.00;0.00;;;19.00;77.30;;;;;;4159379;28;20045;-67
2022/05/15 01:36:29;;;;;;;0.00;0.00;;;19.00;77.40;;;;;;4149110;28;20098;-68
2022/05/15 01:38:52;;;;;;;0.00;0.00;;;19.00;77.40;;;;;;4149058;28;20112;-65
2022/05/15 01:41:14;;;;;;;0.00;0.00;;;19.00;77.30;;;;;;4135401;28;20077;-65
2022/05/15 01:43:43;;;;;;;0.00;0.00;;;19.00;77.30;;;;;;4149120;28;20061;-67
2022/05/15 01:46:09;;;;;;;0.00;0.00;;;19.00;77.30;;;;;;4148952;28;20058;-65
2022/05/15 01:48:33;;;;;;;0.00;0.00;;;19.00;77.40;;;;;;4162710;28;20668;-66
2022/05/15 01:50:58;;;;;;;0.00;0.00;;;18.90;77.60;;;;;;4122064;28;20082;-66
2022/05/15 01:53:22;;;;;;;0.00;0.00;;;18.80;78.00;;;;;;4162590;28;20332;-65
2022/05/15 01:55:44;;;;;;;0.00;0.00;;;18.80;78.20;;;;;;4135439;28;20062;-66
2022/05/15 01:58:10;;;;;;;0.00;0.00;;;18.70;78.30;;;;;;4149085;28;20151;-68
2022/05/15 02:00:40;;;;;;;0.00;0.00;;;18.60;78.40;;;;;;4149050;28;20161;-66
2022/05/15 02:03:07;;;;;;;0.00;0.00;;;18.50;78.90;;;;;;4135742;28;20156;-69
2022/05/15 02:05:34;;;;;;;0.00;0.00;;;18.50;78.90;;;;;;4135265;28;20074;-71
2022/05/15 02:07:57;;;;;;;0.00;0.00;;;18.50;79.00;;;;;;4135139;28;20108;-68
2022/05/15 02:10:22;;;;;;;0.00;0.00;;;18.50;79.10;;;;;;4162433;28;20476;-66
2022/05/15 02:12:47;;;;;;;0.00;0.00;;;18.20;80.00;;;;;;4135022;28;20551;-67
2022/05/15 02:15:10;;;;;;;0.00;0.00;;;18.20;80.30;;;;;;4148655;28;20112;-66
2022/05/15 02:17:35;;;;;;;0.00;0.00;;;18.20;80.10;;;;;;4148514;28;20097;-68
2022/05/15 02:20:04;;;;;;;0.00;0.00;;;18.40;80.10;;;;;;4148550;28;20516;-69
2022/05/15 02:22:30;;;;;;;0.00;0.00;;;18.40;79.70;;;;;;4148367;28;20088;-67
2022/05/15 02:24:52;;;;;;;0.00;0.00;;;18.40;79.60;;;;;;4135063;28;20068;-65
2022/05/15 02:27:18;;;;;;;0.00;0.00;;;18.40;79.60;;;;;;4173226;28;20079;-67
2022/05/15 02:29:43;;;;;;;0.00;0.00;;;18.40;80.20;;;;;;4163876;28;20049;-68
2022/05/15 02:32:05;;;;;;;0.00;0.00;;;18.40;79.70;;;;;;4148237;28;20061;-68
2022/05/15 02:34:30;;;;;;;0.00;0.00;;;18.30;79.80;;;;;;4142095;28;20471;-67
2022/05/15 02:36:58;;;;;;;0.00;0.00;;;18.20;80.00;;;;;;4148483;28;20050;-67
2022/05/15 02:39:25;;;;;;;0.00;0.00;;;18.30;79.90;;;;;;4148319;28;20065;-67
2022/05/15 02:41:51;;;;;;;0.00;0.00;;;18.30;79.80;;;;;;4148125;28;20042;-66
2022/05/15 02:44:14;;;;;;;0.00;0.00;;;18.30;79.70;;;;;;4148254;28;20393;-69
2022/05/15 02:46:41;;;;;;;0.00;0.00;;;18.40;79.50;;;;;;4134414;28;20038;-68
2022/05/15 02:51:47;;;;;;;0.00;0.00;;;18.30;79.30;;;;;;4148337;28;20132;-67
2022/05/15 02:54:16;;;;;;;0.00;0.00;;;18.20;79.20;;;;;;4161617;28;20081;-69
2022/05/15 02:56:39;;;;;;;0.00;0.00;;;18.10;79.40;;;;;;4147854;28;20113;-65
2022/05/15 02:59:08;;;;;;;0.00;0.00;;;18.10;79.60;;;;;;4147909;28;20089;-68
2022/05/15 03:01:30;;;;;;;0.00;0.00;;;18.00;79.90;;;;;;4147791;28;20054;-67
2022/05/15 03:03:55;;;;;;;0.00;0.00;;;17.80;80.30;;;;;;4134027;28;20058;-68
2022/05/15 03:06:20;;;;;;;0.00;0.00;;;17.80;80.40;;;;;;4147861;28;20100;-68
2022/05/15 03:08:50;;;;;;;0.00;0.00;;;17.80;80.50;;;;;;4147944;28;20054;-68
2022/05/15 03:11:12;;;;;;;0.00;0.00;;;17.90;80.30;;;;;;4161507;28;20042;-68
2022/05/15 03:13:37;;;;;;;0.00;0.00;;;17.90;80.00;;;;;;4147644;28;20061;-66
2022/05/15 03:16:01;;;;;;;0.00;0.00;;;17.80;80.10;;;;;;4147706;28;20133;-67
2022/05/15 03:18:26;;;;;;;0.00;0.00;;;17.80;80.10;;;;;;4147824;28;20053;-68
2022/05/15 03:20:50;;;;;;;0.00;0.00;;;17.90;80.00;;;;;;4147868;28;20100;-68
2022/05/15 03:23:13;;;;;;;0.00;0.00;;;17.90;80.00;;;;;;4147566;28;20057;-65
2022/05/15 03:25:37;;;;;;;0.00;0.00;;;17.80;79.80;;;;;;4147371;28;20049;-67
2022/05/15 03:28:04;;;;;;;0.00;0.00;;;17.60;80.30;;;;;;4131272;28;20050;-67
2022/05/15 03:30:26;;;;;;;0.00;0.00;;;17.40;81.00;;;;;;4131187;28;20077;-67
2022/05/15 03:32:48;;;;;;;0.00;0.00;;;17.40;81.20;;;;;;4117920;28;20126;-65
2022/05/15 03:35:14;;;;;;;0.00;0.00;;;17.30;81.30;;;;;;4133101;28;20125;-67
2022/05/15 03:37:36;;;;;;;0.00;0.00;;;17.40;81.20;;;;;;4133679;28;20046;-66
2022/05/15 03:40:00;;;;;;;0.00;0.00;;;17.40;81.00;;;;;;4161084;28;20054;-67
2022/05/15 03:42:26;;;;;;;0.00;0.00;;;17.40;80.70;;;;;;4147502;28;20480;-68
2022/05/15 03:44:48;;;;;;;0.00;0.00;;;17.30;80.80;;;;;;4133713;28;20042;-65
2022/05/15 03:47:15;;;;;;;0.00;0.00;;;17.30;80.70;;;;;;4133481;28;20668;-66
2022/05/15 03:49:39;;;;;;;0.00;0.00;;;17.30;80.60;;;;;;4133421;28;20050;-65
2022/05/15 03:52:06;;;;;;;0.00;0.00;;;17.50;80.30;;;;;;4147181;28;20128;-66
2022/05/15 03:54:27;;;;;;;0.00;0.00;;;17.50;80.00;;;;;;4147081;28;20050;-67
2022/05/15 03:56:57;;;;;;;0.00;0.00;;;17.60;79.90;;;;;;4133399;28;20116;-68
2022/05/15 03:59:32;;;;;;;0.00;0.00;;;17.70;79.90;;;;;;4133363;28;20052;-65
2022/05/15 04:02:00;;;;;;;0.00;0.00;;;17.80;79.70;;;;;;4147038;28;20121;-67
2022/05/15 04:04:30;;;;;;;0.00;0.00;;;17.80;79.50;;;;;;4147088;28;20073;-66
2022/05/15 04:06:58;;;;;;;0.00;0.00;;;17.80;79.40;;;;;;4119674;28;20090;-67
2022/05/15 04:09:25;;;;;;;0.00;0.00;;;17.80;79.20;;;;;;4147269;28;20069;-68
2022/05/15 04:11:52;;;;;;;0.00;0.00;;;17.70;79.30;;;;;;4146868;28;20108;-67
2022/05/15 04:14:14;;;;;;;0.00;0.00;;;17.80;79.10;;;;;;4147025;28;20127;-67
2022/05/15 04:16:37;;;;;;;0.00;0.00;;;17.70;79.20;;;;;;4146034;28;20065;-68
2022/05/15 04:19:05;;;;;;;0.00;0.00;;;17.70;79.20;;;;;;4146801;28;20060;-67
2022/05/15 04:21:30;;;;;;;0.00;0.00;;;17.50;79.20;;;;;;4146793;28;20062;-69
2022/05/15 04:23:52;;;;;;;0.00;0.00;;;17.60;79.20;;;;;;4146676;28;20091;-67
2022/05/15 04:26:17;;;;;;;0.00;0.00;;;17.60;79.10;;;;;;4135752;28;20474;-67
2022/05/15 04:28:43;;;;;;;0.00;0.00;;;17.60;79.30;;;;;;4149476;28;20046;-67
2022/05/15 04:31:06;;;;;;;0.00;0.00;;;17.60;79.20;;;;;;4149522;28;20119;-66
2022/05/15 04:33:30;;;;;;;0.00;0.00;;;17.60;79.20;;;;;;4149408;28;20049;-69
2022/05/15 04:35:52;;;;;;;0.00;0.00;;;17.50;79.50;;;;;;4163280;28;20061;-66
2022/05/15 04:38:14;;;;;;;0.00;0.00;;;17.50;79.80;;;;;;4149467;28;20072;-66
2022/05/15 04:40:37;;;;;;;0.00;0.00;;;17.50;79.80;;;;;;4149499;28;20046;-68
2022/05/15 04:42:59;;;;;;;0.00;0.00;;;17.40;80.00;;;;;;4163064;28;20053;-69
2022/05/15 04:45:25;;;;;;;0.00;0.00;;;17.30;80.30;;;;;;4162935;28;20096;-71
2022/05/15 04:47:47;;;;;;;0.00;0.00;;;17.30;80.60;;;;;;4163068;28;20774;-68
2022/05/15 04:50:12;;;;;;;0.00;0.00;;;17.30;80.80;;;;;;4149309;28;20702;-67
2022/05/15 04:52:35;;;;;;;0.00;0.00;;;17.30;80.90;;;;;;4163083;28;20124;-69
2022/05/15 04:55:01;;;;;;;0.00;0.00;;;17.40;80.80;;;;;;4162876;28;20045;-67
2022/05/15 04:57:23;;;;;;;0.00;0.00;;;17.50;80.60;;;;;;4162806;28;20448;-66
2022/05/15 04:59:48;;;;;;;0.00;0.00;;;17.60;80.40;;;;;;4149561;28;20061;-68
2022/05/15 05:02:12;;;;;;;0.00;0.00;;;17.60;80.20;;;;;;4162708;28;20080;-68
2022/05/15 05:04:34;;;;;;;0.00;0.00;;;17.70;80.10;;;;;;4149190;28;20084;-68
2022/05/15 05:06:56;;;;;;;0.00;0.00;;;17.60;80.20;;;;;;4162588;28;20055;-70
2022/05/15 05:09:21;;;;;;;0.00;0.00;;;17.60;80.60;;;;;;4149118;28;20107;-69
2022/05/15 05:11:43;;;;;;;0.00;0.00;;;17.70;80.40;;;;;;4162970;28;20099;-67
2022/05/15 05:14:05;;;;;;;0.00;0.00;;;17.90;80.40;;;;;;4149245;28;20054;-67
2022/05/15 05:16:33;;;;;;;0.00;0.00;;;18.00;80.10;;;;;;4162742;28;20064;-68
2022/05/15 05:18:57;;;;;;;0.00;0.00;;;18.10;79.70;;;;;;4163027;28;20077;-67
2022/05/15 05:21:21;;;;;;;0.00;0.00;;;18.20;79.60;;;;;;4149192;28;20064;-69
2022/05/15 05:23:43;;;;;;;0.00;0.00;;;18.20;79.50;;;;;;4162627;28;20132;-70
2022/05/15 05:26:10;;;;;;;0.00;0.00;;;18.20;79.50;;;;;;4148773;28;20042;-65
2022/05/15 05:28:32;;;;;;;0.00;0.00;;;18.30;79.20;;;;;;4151620;28;20157;-67
2022/05/15 05:30:59;;;;;;;0.00;0.00;;;18.30;79.30;;;;;;4152707;28;20056;-68
2022/05/15 05:33:23;;;;;;;0.00;0.00;;;18.40;78.70;;;;;;4165548;28;20331;-68
2022/05/15 05:35:46;;;;;;;0.00;0.00;;;18.50;78.10;;;;;;4152133;28;20696;-67
2022/05/15 05:38:12;;;;;;;0.00;0.00;;;18.60;77.80;;;;;;4165554;28;20041;-69
2022/05/15 05:40:37;;;;;;;0.00;0.00;;;18.70;77.60;;;;;;4165468;28;20042;-69
2022/05/15 05:43:04;;;;;;;0.00;0.00;;;18.80;77.20;;;;;;4165694;28;20128;-67
2022/05/15 05:45:29;;;;;;;0.00;0.00;;;18.80;77.00;;;;;;4165450;28;20053;-66
2022/05/15 05:47:55;;;;;;;0.00;0.00;;;18.80;77.20;;;;;;4165351;28;20053;-67
2022/05/15 05:50:22;;;;;;;0.00;0.00;;;18.90;77.20;;;;;;4167998;28;20051;-68
2022/05/15 05:52:44;;;;;;;0.00;0.00;;;19.10;77.00;;;;;;4154216;28;20582;-68
2022/05/15 05:55:08;;;;;;;0.00;0.00;;;19.10;76.50;;;;;;4154074;28;20153;-67
2022/05/15 05:57:33;;;;;;;0.00;0.00;;;19.10;76.50;;;;;;4154592;28;20049;-66
2022/05/15 05:59:55;;;;;;;0.00;0.00;;;19.20;76.30;;;;;;4154243;28;20573;-67
2022/05/15 06:02:19;;;;;;;0.00;0.00;;;19.20;76.30;;;;;;4140805;28;20042;-69
2022/05/15 06:04:44;;;;;;;0.00;0.00;;;19.30;76.60;;;;;;4154099;28;20476;-68
2022/05/15 06:07:14;;;;;;;0.00;0.00;;;19.30;76.40;;;;;;4167498;28;20041;-67
2022/05/15 06:09:43;;;;;;;0.00;0.00;;;19.50;76.10;;;;;;4153883;28;20140;-69
2022/05/15 06:12:09;;;;;;;0.00;0.00;;;19.60;75.70;;;;;;4167707;28;20080;-66
2022/05/15 06:14:36;;;;;;;0.00;0.00;;;19.70;75.50;;;;;;4153909;28;20468;-68
2022/05/15 06:17:00;;;;;;;0.00;0.00;;;19.80;75.40;;;;;;4153749;28;20119;-67
2022/05/15 06:19:22;;;;;;;0.00;0.00;;;19.70;75.00;;;;;;4153658;28;20608;-66
2022/05/15 06:21:46;;;;;;;0.00;0.00;;;19.80;75.10;;;;;;4167466;28;20041;-66
2022/05/15 06:24:08;;;;;;;0.00;0.00;;;19.80;75.10;;;;;;4167523;28;20046;-66
2022/05/15 06:26:30;;;;;;;0.00;0.00;;;20.00;75.20;;;;;;4162790;28;20705;-67
2022/05/15 06:28:56;;;;;;;0.00;0.00;;;20.20;74.10;;;;;;4150708;28;20440;-68
2022/05/15 06:31:22;;;;;;;0.00;0.00;;;20.20;73.40;;;;;;4138070;28;20054;-68
2022/05/15 06:33:44;;;;;;;0.00;0.00;;;20.10;73.70;;;;;;4137080;28;20474;-68
2022/05/15 06:36:12;;;;;;;0.00;0.00;;;20.00;73.90;;;;;;4150856;28;20106;-68
2022/05/15 06:38:34;;;;;;;0.00;0.00;;;20.10;74.20;;;;;;4150393;28;20041;-68
2022/05/15 06:40:56;;;;;;;0.00;0.00;;;20.10;73.60;;;;;;4164407;28;20132;-65
2022/05/15 06:43:20;;;;;;;0.00;0.00;;;20.00;73.90;;;;;;4151002;28;20465;-65
2022/05/15 06:45:43;;;;;;;0.00;0.00;;;20.00;73.40;;;;;;4150546;28;20045;-65
2022/05/15 06:48:08;;;;;;;0.00;0.00;;;20.20;73.60;;;;;;4150785;28;20046;-64
2022/05/15 06:50:32;;;;;;;0.00;0.00;;;20.10;73.40;;;;;;4136948;28;20045;-65
2022/05/15 06:52:56;;;;;;;0.00;0.00;;;19.90;73.50;;;;;;4150823;28;20061;-63
2022/05/15 06:55:21;;;;;;;0.00;0.00;;;19.70;74.40;;;;;;4150523;28;20112;-65
2022/05/15 06:57:44;;;;;;;0.00;0.00;;;19.60;75.40;;;;;;4137154;28;20115;-64
2022/05/15 07:00:15;;;;;;;0.00;0.00;;;19.70;75.40;;;;;;4164759;28;20476;-67
2022/05/15 07:02:41;;;;;;;0.00;0.00;;;19.80;74.70;;;;;;4150728;28;20046;-64
2022/05/15 07:05:11;;;;;;;0.00;0.00;;;20.00;74.30;;;;;;4137053;28;20050;-63
2022/05/15 07:07:36;;;;;;;0.00;0.00;;;20.20;74.70;;;;;;4150622;28;20099;-63
2022/05/15 07:09:58;;;;;;;0.00;0.00;;;20.40;74.20;;;;;;4150711;28;20129;-65
2022/05/15 07:12:26;;;;;;;0.00;0.00;;;20.60;73.40;;;;;;4150843;28;20049;-64
2022/05/15 07:14:50;;;;;;;0.00;0.00;;;20.70;73.20;;;;;;4150481;28;20129;-66
2022/05/15 07:17:12;;;;;;;0.00;0.00;;;20.70;73.00;;;;;;4164288;28;20077;-64
2022/05/15 07:19:35;;;;;;;0.00;0.00;;;20.60;72.90;;;;;;4150409;28;20392;-65
2022/05/15 07:22:00;;;;;;;0.00;0.00;;;20.40;73.30;;;;;;4150550;28;20120;-65
2022/05/15 07:24:22;;;;;;;0.00;0.00;;;20.20;73.90;;;;;;4137118;28;20540;-64
2022/05/15 07:26:45;;;;;;;0.00;0.00;;;20.10;75.00;;;;;;4156683;28;20057;-64
2022/05/15 07:29:13;;;;;;;0.00;0.00;;;20.30;74.60;;;;;;4160516;28;20100;-63
2022/05/15 07:31:37;;;;;;;0.00;0.00;;;20.40;73.90;;;;;;4164428;28;20092;-64
2022/05/15 07:33:59;;;;;;;0.00;0.00;;;20.30;74.50;;;;;;4163266;28;20045;-64
2022/05/15 07:36:21;;;;;;;0.00;0.00;;;20.20;74.80;;;;;;4151483;28;20057;-63
2022/05/15 07:38:46;;;;;;;0.00;0.00;;;20.30;74.90;;;;;;4164733;28;20349;-63
2022/05/15 07:41:14;;;;;;;0.00;0.00;;;20.40;75.30;;;;;;4178486;28;20048;-64
2022/05/15 07:43:40;;;;;;;0.00;0.00;;;20.60;74.90;;;;;;4165286;28;20053;-64
2022/05/15 07:46:02;;;;;;;0.00;0.00;;;20.90;74.00;;;;;;4164379;28;20084;-64
2022/05/15 07:48:24;;;;;;;0.00;0.00;;;21.00;73.30;;;;;;4165367;28;20483;-64
2022/05/15 07:50:48;;;;;;;0.00;0.00;;;21.10;73.40;;;;;;4165238;28;20143;-67
2022/05/15 07:53:14;;;;;;;0.00;0.00;;;21.50;73.70;;;;;;4164836;28;20552;-64
2022/05/15 07:55:40;;;;;;;0.00;0.00;;;21.60;72.40;;;;;;4165007;28;20072;-64
2022/05/15 07:58:04;;;;;;;0.00;0.00;;;21.50;71.80;;;;;;4165060;28;20041;-64
2022/05/15 08:00:26;;;;;;;0.00;0.00;;;21.60;71.90;;;;;;4164946;28;20091;-64
2022/05/15 08:02:48;;;;;;;0.00;0.00;;;21.40;71.60;;;;;;4164929;28;20037;-64
2022/05/15 08:08:00;;;;;;;0.00;0.00;;;21.00;72.50;;;;;;4164766;28;20046;-64
2022/05/15 08:10:25;;;;;;;0.00;0.00;;;20.70;73.70;;;;;;4164743;28;20124;-64
2022/05/15 08:12:51;;;;;;;0.00;0.00;;;20.80;74.00;;;;;;4150938;28;20050;-64
2022/05/15 08:15:14;;;;;;;0.00;0.00;;;21.00;73.50;;;;;;4164834;28;20092;-64
2022/05/15 08:17:43;;;;;;;0.00;0.00;;;21.20;73.80;;;;;;4164609;28;20055;-63
2022/05/15 08:25:36;;;;;;;0.00;0.00;;;21.60;72.60;;;;;;4164730;28;20045;-64
2022/05/15 08:28:00;;;;;;;0.00;0.00;;;21.40;73.00;;;;;;4178337;28;20056;-64
2022/05/15 08:30:27;;;;;;;0.00;0.00;;;21.50;72.80;;;;;;4164876;28;20137;-65
2022/05/15 08:32:54;;;;;;;0.00;0.00;;;21.80;72.60;;;;;;4151110;28;20080;-64
2022/05/15 08:35:18;;;;;;;0.00;0.00;;;22.00;71.90;;;;;;4164402;28;20446;-64
2022/05/15 08:37:42;;;;;;;0.00;0.00;;;22.10;71.20;;;;;;4164501;28;20057;-65
2022/05/15 08:40:04;;;;;;;0.00;0.00;;;22.10;71.20;;;;;;4164707;28;20045;-66
2022/05/15 08:42:47;;;;;;;0.00;0.00;;;22.20;71.50;;;;;;4164843;28;20061;-64
2022/05/15 08:45:14;;;;;;;0.00;0.00;;;22.30;71.80;;;;;;4164743;28;20081;-65
2022/05/15 08:47:42;;;;;;;0.00;0.00;;;22.10;72.10;;;;;;4150908;28;20064;-65
2022/05/15 08:50:09;;;;;;;;;;;21.80;72.10;;;;;;4151843;28;20491;-65
2022/05/15 08:52:56;;;;;;;0.00;0.00;;;21.90;72.20;;;;;;4178363;28;19931;-66
2022/05/15 08:55:32;;;;;;;0.00;0.00;;;22.30;72.30;;;;;;4164762;28;20128;-65
2022/05/15 08:58:00;;;;;;;0.00;0.00;;;22.60;71.20;;;;;;4164625;28;20131;-66
2022/05/15 09:00:33;;;;;;;0.00;0.00;;;22.70;69.80;;;;;;4178250;28;20037;-65
2022/05/15 09:03:03;;;;;;;0.00;0.00;;;22.60;69.80;;;;;;4152358;28;20292;-65
2022/05/15 09:05:31;;;;;;;0.00;0.00;;;22.60;71.10;;;;;;4167748;28;20038;-65
2022/05/15 09:07:59;;;;;;;0.00;0.00;;;22.80;69.40;;;;;;4167381;28;20049;-66
2022/05/15 09:10:24;;;;;;;0.00;0.00;;;22.70;68.80;;;;;;4181426;28;20045;-65
2022/05/15 09:13:05;;;;;;;0.00;0.00;;;22.60;69.80;;;;;;4167272;28;20081;-66
2022/05/15 09:15:30;;;;;;;0.00;0.00;;;22.60;70.60;;;;;;4153809;28;20049;-65
2022/05/15 09:18:03;;;;;;;0.00;0.00;;;22.60;70.60;;;;;;4167687;28;20450;-66
2022/05/15 09:20:56;;;;;;;0.00;0.00;;;22.70;70.50;;;;;;4167394;28;20128;-65
2022/05/15 09:23:24;;;;;;;0.00;0.00;;;22.80;70.20;;;;;;4167367;28;20059;-65
2022/05/15 09:25:55;;;;;;;0.00;0.00;;;23.00;70.00;;;;;;4140262;28;20068;-66
2022/05/15 09:28:17;;;;;;;0.00;0.00;;;23.10;70.00;;;;;;4167159;28;20057;-65
2022/05/15 09:30:47;;;;;;;0.00;0.00;;;23.20;69.70;;;;;;4167335;28;20057;-65
2022/05/15 09:33:38;;;;;;;0.00;0.00;;;23.20;69.60;;;;;;4167275;28;20049;-65
2022/05/15 09:36:21;;;;;;;0.00;0.00;;;23.40;69.90;;;;;;4167129;28;20319;-65
2022/05/15 09:38:45;;;;;;;0.00;0.00;;;23.50;69.30;;;;;;4167333;28;20472;-64
2022/05/15 09:44:31;;;;;;;0.00;0.00;;;23.60;69.60;;;;;;4138261;28;20118;-65
2022/05/15 09:47:19;;;;;;;0.00;0.00;;;23.60;69.60;;;;;;4167209;28;20061;-65
2022/05/15 09:49:43;;;;;;;0.00;0.00;;;23.60;69.80;;;;;;4166650;28;20054;-66
2022/05/15 09:52:38;;;;;;;0.00;0.00;;;23.60;69.90;;;;;;4153714;28;20610;-65
2022/05/15 09:55:25;;;;;;;0.00;0.00;;;23.60;69.70;;;;;;4166992;28;20395;-66
2022/05/15 09:57:57;;;;;;;0.00;0.00;;;23.80;70.00;;;;;;4156084;28;20084;-66
2022/05/15 10:00:22;;;;;;;0.00;0.00;;;23.80;68.40;;;;;;4152944;28;20055;-65
2022/05/15 10:02:52;;;;;;;0.00;0.00;;;23.60;70.00;;;;;;4151270;28;20492;-66
2022/05/15 10:05:14;;;;;;;0.00;0.00;;;23.70;69.40;;;;;;4149927;28;20050;-66
2022/05/15 10:07:44;;;;;;;0.00;0.00;;;23.80;68.70;;;;;;4139129;28;20058;-66
2022/05/15 10:10:23;;;;;;;0.00;0.00;;;24.00;68.80;;;;;;4136856;28;20124;-65
2022/05/15 10:12:56;;;;;;;0.00;0.00;;;24.00;68.90;;;;;;4136756;28;20055;-65
2022/05/15 10:15:21;;;;;;;0.00;0.00;;;23.90;68.30;;;;;;4135812;28;20045;-65
2022/05/15 10:18:08;;;;;;;0.00;0.00;;;24.00;68.70;;;;;;4150599;28;20121;-65
2022/05/15 10:20:35;;;;;;;0.00;0.00;;;24.00;67.50;;;;;;4148441;28;20050;-66
2022/05/15 10:23:08;;;;;;;0.00;0.00;;;23.70;69.80;;;;;;4138743;28;20050;-66
2022/05/15 10:25:48;;;;;;;0.00;0.00;;;23.90;69.40;;;;;;4165224;28;20049;-66
2022/05/15 10:28:38;;;;;;;0.00;0.00;;;24.00;68.90;;;;;;4165267;28;20354;-66
2022/05/15 10:31:18;;;;;;;0.00;0.00;;;24.10;68.00;;;;;;4149569;28;20069;-65
2022/05/15 10:33:43;;;;;;;0.00;0.00;;;24.30;68.40;;;;;;4152105;28;20034;-66
2022/05/15 10:36:25;;;;;;;0.00;0.00;;;24.50;68.20;;;;;;4152329;28;20037;-66
2022/05/15 10:39:21;;;;;;;0.00;0.00;;;24.60;67.60;;;;;;4160572;28;20046;-65
2022/05/15 10:42:10;;;;;;;0.00;0.00;;;24.70;67.50;;;;;;4152156;28;20049;-66
2022/05/15 10:44:50;;;;;;;0.00;0.00;;;24.80;67.50;;;;;;4138443;28;20046;-66
2022/05/15 10:47:23;;;;;;;0.00;0.00;;;24.90;67.70;;;;;;4133248;28;20359;-65
2022/05/15 10:50:24;;;;;;;0.00;0.00;;;24.90;67.10;;;;;;4151914;28;20046;-66
2022/05/15 10:59:53;;;;;;;0.00;0.00;;;25.00;65.30;;;;;;4141895;28;20057;-66
2022/05/15 11:02:33;;;;;;;0.00;0.00;;;25.20;66.80;;;;;;4145876;28;20112;-66
2022/05/15 11:05:07;;;;;;;0.00;0.00;;;25.30;66.50;;;;;;4168191;28;20057;-67
2022/05/15 11:07:53;;;;;;;0.00;0.00;;;25.00;64.90;;;;;;4153768;28;20637;-66
2022/05/15 11:10:32;;;;;;;0.00;0.00;;;24.90;66.10;;;;;;4167696;28;20057;-65
2022/05/15 11:13:06;;;;;;;0.00;0.00;;;25.00;66.10;;;;;;4153232;28;20058;-65
2022/05/15 11:15:43;;;;;;;0.00;0.00;;;25.20;65.70;;;;;;4167349;28;20041;-66
2022/05/15 11:18:42;;;;;;;0.00;0.00;;;24.90;64.80;;;;;;4167575;28;20057;-65
2022/05/15 11:21:27;;;;;;;0.00;0.00;;;24.80;67.30;;;;;;4167956;28;20056;-67
2022/05/15 11:24:15;;;;;;;0.00;0.00;;;25.00;66.40;;;;;;4168476;28;20048;-66
2022/05/15 11:26:46;;;;;;;0.00;0.00;;;25.30;66.60;;;;;;4167472;28;20164;-65
2022/05/15 11:29:14;;;;;;;0.00;0.00;;;25.30;66.20;;;;;;4168054;28;20049;-66
2022/05/15 11:31:48;;;;;;;0.00;0.00;;;25.40;66.10;;;;;;4154545;28;20065;-66
2022/05/15 11:34:15;;;;;;;0.00;0.00;;;25.40;65.40;;;;;;4168008;28;20037;-66
2022/05/15 11:36:48;;;;;;;0.00;0.00;;;25.50;64.80;;;;;;4168064;28;20049;-66
2022/05/15 11:39:13;;;;;;;0.00;0.00;;;25.60;65.60;;;;;;4167741;28;20057;-65
2022/05/15 11:41:35;;;;;;;0.00;0.00;;;25.80;65.00;;;;;;4167756;28;20059;-66
2022/05/15 11:43:59;;;;;;;0.00;0.00;;;25.90;64.20;;;;;;4167996;28;20045;-67
2022/05/15 11:46:51;;;;;;;0.00;0.00;;;26.00;63.80;;;;;;4167838;28;20060;-66
2022/05/15 11:49:16;;;;;;;0.00;0.00;;;26.00;64.40;;;;;;4167513;28;20103;-66
2022/05/15 11:51:40;;;;;;;0.00;0.00;;;26.00;63.80;;;;;;4167951;28;20053;-66
2022/05/15 11:54:06;;;;;;;0.00;0.00;;;26.00;63.40;;;;;;4167825;28;20046;-65
2022/05/15 11:56:46;;;;;;;0.00;0.00;;;26.10;63.70;;;;;;4167891;28;20041;-67
2022/05/15 11:59:17;;;;;;;0.00;0.00;;;26.20;63.00;;;;;;4167937;28;20446;-67
2022/05/15 12:01:39;;;;;;;0.00;0.00;;;26.20;62.60;;;;;;4167986;28;20357;-66
2022/05/15 12:04:21;;;;;;;0.00;0.00;;;26.30;61.80;;;;;;4167477;28;20049;-66
2022/05/15 12:06:57;;;;;;;0.00;0.00;;;26.40;62.90;;;;;;4168203;28;20064;-66
2022/05/15 12:09:27;;;;;;;0.00;0.00;;;26.40;62.10;;;;;;4167356;28;20045;-66
2022/05/15 12:11:53;;;;;;;0.00;0.00;;;26.50;62.00;;;;;;4154027;28;20046;-65
2022/05/15 12:14:21;;;;;;;0.00;0.00;;;26.60;61.10;;;;;;4167499;28;20045;-66
2022/05/15 12:17:11;;;;;;;0.00;0.00;;;26.60;60.40;;;;;;4181262;28;20368;-65
2022/05/15 12:19:40;;;;;;;0.00;0.00;;;26.70;60.70;;;;;;4167209;28;20034;-66
2022/05/15 12:22:08;;;;;;;0.00;0.00;;;26.80;60.50;;;;;;4167246;28;20055;-66
2022/05/15 12:24:36;;;;;;;0.00;0.00;;;26.90;59.60;;;;;;4153910;28;20118;-66
2022/05/15 12:27:12;;;;;;;0.00;0.00;;;27.00;59.20;;;;;;4167284;28;20052;-65
2022/05/15 12:30:04;;;;;;;0.00;0.00;;;27.00;58.00;;;;;;4167595;28;20427;-66
2022/05/15 12:32:41;;;;;;;0.00;0.00;;;27.00;58.10;;;;;;4167374;28;20049;-66
2022/05/15 12:35:31;;;;;;;0.00;0.00;;;27.00;57.90;;;;;;4154577;28;20148;-65
2022/05/15 12:37:58;;;;;;;0.00;0.00;;;27.10;58.50;;;;;;4155240;28;20089;-66
2022/05/15 12:40:59;;;;;;;0.00;0.00;;;27.10;58.50;;;;;;4170663;28;20136;-65
2022/05/15 12:43:34;;;;;;;0.00;0.00;;;27.30;58.10;;;;;;4156867;28;20092;-66
2022/05/15 12:46:02;;;;;;;0.00;0.00;;;27.30;57.60;;;;;;4170754;28;20057;-65
2022/05/15 12:48:31;;;;;;;0.00;0.00;;;27.40;57.40;;;;;;4156823;28;20354;-67
2022/05/15 12:51:07;;;;;;;0.00;0.00;;;27.40;57.60;;;;;;4170649;28;20037;-65
2022/05/15 12:53:32;;;;;;;0.00;0.00;;;27.40;57.70;;;;;;4170714;28;20092;-65
2022/05/15 12:56:17;;;;;;;0.00;0.00;;;27.40;58.20;;;;;;4170615;28;20533;-66
2022/05/15 12:58:39;;;;;;;0.00;0.00;;;27.50;56.70;;;;;;4170384;28;20088;-65
2022/05/15 13:01:01;;;;;;;0.00;0.00;;;27.20;58.50;;;;;;4170338;28;20049;-65
2022/05/15 13:03:25;;;;;;;0.00;0.00;;;27.20;58.90;;;;;;4170621;28;20460;-65
2022/05/15 13:06:01;;;;;;;0.00;0.00;;;27.30;58.00;;;;;;4156672;28;20077;-65
2022/05/15 13:08:25;;;;;;;0.00;0.00;;;27.40;57.90;;;;;;4170321;28;20053;-67
2022/05/15 13:10:58;;;;;;;0.00;0.00;;;27.50;56.80;;;;;;4156653;28;20108;-65
2022/05/15 13:13:28;;;;;;;0.00;0.00;;;27.50;57.00;;;;;;4170274;28;20045;-66